Terminal Aerodrome Forecast
Issued by NWS

Home | Current Version | Previous Version | Text Only | Print | Product List | Glossary On
Versions: 1 2 3 4 5 6 7 8 9 10 11 12 13
902
FTUS42 KTBW 311120
TAFLAL
TAF
KLAL 311120Z 3112/0112 00000KT P6SM SKC
     FM311400 VRB03KT P6SM SCT035 SCT250
     FM311800 VRB04KT P6SM VCTS SCT050CB SCT250
     FM312000 32006KT P6SM VCTS BKN050CB
     FM010200 VRB03KT P6SM FEW050 SCT100 BKN250
     FM010600 00000KT P6SM FEW100 SCT250=

USA.gov is the U.S. government's official web portal to all federal, state and local government web resources and services.